Rechercher aéroport 
image banner adimage banner adimage banner ad
image banner ad

49X - Chemehuevi Valley

Situé à Chemehuevi Valley, United States

ICAO - 49X, IATA -

Données fournies par Airmate  

Information générale

Coordonnées: N34°31'44" W114°25'55"
Élévation : 638 feet MSL.
Variation magnétique : 13° East
Voir autres Aéroports à California

Données opérationnelles

Special qualification required
Heure actuelle UTC:
Heure actuelle locale:
Météo à : KHII - Lake Havasu City ( 8 km )
METAR: KHII 212355Z AUTO 31004KT 10SM CLR 37/M01 A3003 RMK AO2
Voir NOTAMs / SUP AIP / TFR affectant cet aéroport [VIEW]
Fréquences de communication: [VIEW]

Pistes:

Identifiant RWYQFULongueur (ft)Largeur (ft)SurfaceLDA (ft)
16500075ASPH
34500075ASPH

Coordonnées de l'aéroport

Adresse: Chemehuevi Valley United States

Vue satellite de 49X